createdAt,value
2018-08-28T00:02:42.980Z,99331.61
2018-08-28T00:05:45.297Z,99330.14
2018-08-28T00:08:47.693Z,99331.94
2018-08-28T00:11:50.043Z,99329.47
2018-08-28T00:14:52.340Z,99332.58
2018-08-28T00:17:54.696Z,99332.09
2018-08-28T00:20:56.978Z,99332.25
2018-08-28T00:23:59.160Z,99337.00
2018-08-28T00:27:01.437Z,99335.86
2018-08-28T00:30:03.802Z,99334.06
2018-08-28T00:33:07.583Z,99335.70
2018-08-28T00:36:09.847Z,99341.25
2018-08-28T00:39:12.025Z,99342.56
2018-08-28T00:42:14.239Z,99351.23
2018-08-28T00:45:16.479Z,99345.84
2018-08-28T00:48:18.687Z,99349.27
2018-08-28T00:51:20.896Z,99346.16
2018-08-28T00:54:23.307Z,99349.76
2018-08-28T00:57:25.555Z,99343.89
2018-08-28T01:00:27.811Z,99349.77
2018-08-28T01:03:29.983Z,99353.36
2018-08-28T01:06:32.156Z,99355.16
2018-08-28T01:09:34.330Z,99355.49
2018-08-28T01:12:36.568Z,99364.66
2018-08-28T01:15:38.770Z,99357.95
2018-08-28T01:18:41.114Z,99355.16
2018-08-28T01:21:43.403Z,99357.62
2018-08-28T01:24:45.576Z,99360.89
2018-08-28T01:27:47.756Z,99369.39
2018-08-28T01:30:49.890Z,99364.98
2018-08-28T01:33:53.744Z,99359.91
2018-08-28T01:36:56.135Z,99360.23
2018-08-28T01:40:00.574Z,99372.17
2018-08-28T01:43:07.506Z,99371.34
2018-08-28T01:46:09.715Z,99380.33
2018-08-28T01:49:11.938Z,99378.70
2018-08-28T01:52:14.108Z,99380.84
2018-08-28T01:55:16.316Z,99383.79
2018-08-28T01:58:18.481Z,99390.67
2018-08-28T02:01:20.760Z,99385.44
2018-08-28T02:04:23.031Z,99381.50
2018-08-28T02:07:25.384Z,99388.70
2018-08-28T02:10:28.223Z,99386.09
2018-08-28T02:13:30.450Z,99391.33
2018-08-28T02:16:32.693Z,99391.66
2018-08-28T02:19:34.833Z,99389.72
2018-08-28T02:22:37.057Z,99388.77
2018-08-28T02:25:39.329Z,99395.30
2018-08-28T02:28:41.576Z,99391.84
2018-08-28T02:31:43.884Z,99388.89
2018-08-28T02:34:46.132Z,99388.38
2018-08-28T02:37:48.299Z,99392.46
2018-08-28T02:40:50.451Z,99392.30
2018-08-28T02:43:52.646Z,99391.97
2018-08-28T02:46:54.861Z,99388.74
2018-08-28T02:49:57.037Z,99393.98
2018-08-28T02:52:59.271Z,99392.35
2018-08-28T02:56:01.652Z,99395.45
2018-08-28T02:59:03.828Z,99397.41
2018-08-28T03:02:06.047Z,99399.86
2018-08-28T03:05:08.217Z,99398.38
2018-08-28T03:08:10.467Z,99394.94
2018-08-28T03:11:12.726Z,99399.53
2018-08-28T03:14:14.997Z,99393.97
2018-08-28T03:17:17.460Z,99392.99
2018-08-28T03:20:19.716Z,99400.04
2018-08-28T03:23:21.996Z,99401.02
2018-08-28T03:26:24.265Z,99403.48
2018-08-28T03:29:26.523Z,99405.45
2018-08-28T03:32:29.133Z,99407.41
2018-08-28T03:35:31.350Z,99407.74
2018-08-28T03:38:34.560Z,99418.88
2018-08-28T03:41:36.866Z,99416.09
2018-08-28T03:44:39.173Z,99418.04
2018-08-28T03:47:41.350Z,99413.11
2018-08-28T03:50:43.469Z,99416.37
2018-08-28T03:53:45.723Z,99419.14
2018-08-28T03:56:47.960Z,99424.70
2018-08-28T03:59:50.198Z,99426.33
2018-08-28T04:02:52.417Z,99425.34
2018-08-28T04:05:54.559Z,99430.77
2018-08-28T04:08:56.809Z,99426.67
2018-08-28T04:11:59.013Z,99435.02
2018-08-28T04:15:01.191Z,99434.20
2018-08-28T04:18:03.466Z,99429.93
2018-08-28T04:21:05.753Z,99433.22
2018-08-28T04:24:07.960Z,99433.55
2018-08-28T04:27:10.276Z,99432.25
2018-08-28T04:30:12.512Z,99437.51
2018-08-28T04:33:14.728Z,99438.50
2018-08-28T04:36:17.042Z,99436.55
2018-08-28T04:39:19.189Z,99441.14
2018-08-28T04:42:21.465Z,99444.09
2018-08-28T04:45:23.756Z,99450.63
2018-08-28T04:48:26.114Z,99453.38
2018-08-28T04:51:28.307Z,99461.73
2018-08-28T04:54:30.539Z,99459.11
2018-08-28T04:57:32.707Z,99459.27
2018-08-28T05:00:34.959Z,99456.82
2018-08-28T05:03:37.106Z,99463.38
2018-08-28T05:06:39.296Z,99462.42
2018-08-28T05:09:41.583Z,99462.42
2018-08-28T05:12:43.833Z,99464.51
2018-08-28T05:15:46.076Z,99467.81
2018-08-28T05:18:48.291Z,99470.23
2018-08-28T05:21:50.539Z,99475.63
2018-08-28T05:24:52.911Z,99485.38
2018-08-28T05:27:55.119Z,99478.38
2018-08-28T05:30:57.295Z,99472.35
2018-08-28T05:33:59.677Z,99482.48
2018-08-28T05:37:02.153Z,99479.19
2018-08-28T05:40:04.428Z,99478.63
2018-08-28T05:43:06.562Z,99483.49
2018-08-28T05:46:08.782Z,99483.91
2018-08-28T05:49:11.001Z,99480.34
2018-08-28T05:52:13.120Z,99480.52
2018-08-28T05:55:15.335Z,99477.16
2018-08-28T05:58:17.550Z,99477.07
2018-08-28T06:01:19.881Z,99479.27
2018-08-28T06:04:22.138Z,99476.88
2018-08-28T06:07:24.366Z,99476.28
2018-08-28T06:10:26.642Z,99481.16
2018-08-28T06:13:28.865Z,99483.47
2018-08-28T06:16:31.060Z,99478.09
2018-08-28T06:19:33.377Z,99488.39
2018-08-28T06:22:35.625Z,99489.61
2018-08-28T06:25:38.035Z,99493.55
2018-08-28T06:28:40.334Z,99486.83
2018-08-28T06:31:42.499Z,99485.74
2018-08-28T06:34:44.725Z,99490.30
2018-08-28T06:37:46.985Z,99484.68
2018-08-28T06:40:49.244Z,99484.03
2018-08-28T06:43:51.536Z,99486.62
2018-08-28T06:46:53.649Z,99491.22
2018-08-28T06:49:56.000Z,99497.87
2018-08-28T06:52:58.267Z,99492.83
2018-08-28T06:56:00.504Z,99492.09
2018-08-28T06:59:02.805Z,99487.72
2018-08-28T07:02:05.405Z,99494.38
2018-08-28T07:05:07.820Z,99490.30
2018-08-28T07:08:10.031Z,99499.92
2018-08-28T07:11:12.185Z,99488.78
2018-08-28T07:14:14.418Z,99485.09
2018-08-28T07:17:16.592Z,99493.11
2018-08-28T07:20:18.832Z,99486.47
2018-08-28T07:23:21.034Z,99484.55
2018-08-28T07:26:23.332Z,99488.18
2018-08-28T07:29:25.545Z,99496.48
2018-08-28T07:32:27.826Z,99489.25
2018-08-28T07:35:30.007Z,99491.81
2018-08-28T07:38:32.397Z,99495.79
2018-08-28T07:41:34.573Z,99488.84
2018-08-28T07:44:36.824Z,99492.86
2018-08-28T07:47:38.983Z,99490.53
2018-08-28T07:50:41.245Z,99495.39
2018-08-28T07:53:43.497Z,99498.26
2018-08-28T07:56:45.789Z,99490.75
2018-08-28T07:59:47.960Z,99493.13
2018-08-28T08:02:50.091Z,99492.56
2018-08-28T08:05:53.805Z,99495.03
2018-08-28T08:08:55.925Z,99493.13
2018-08-28T08:11:58.089Z,99491.96
2018-08-28T08:15:00.251Z,99489.38
2018-08-28T08:18:02.503Z,99493.91
2018-08-28T08:21:04.849Z,99497.71
2018-08-28T08:24:07.127Z,99499.05
2018-08-28T08:27:09.321Z,99501.47
2018-08-28T08:30:11.584Z,99497.25
2018-08-28T08:33:13.828Z,99504.95
2018-08-28T08:36:15.928Z,99500.72
2018-08-28T08:39:18.103Z,99499.00
2018-08-28T08:42:20.287Z,99501.47
2018-08-28T08:45:22.444Z,99502.83
2018-08-28T08:48:24.649Z,99505.13
2018-08-28T08:51:26.798Z,99495.34
2018-08-28T08:54:29.041Z,99502.00
2018-08-28T08:57:31.311Z,99495.88
2018-08-28T09:00:33.405Z,99489.56
2018-08-28T09:03:35.548Z,99492.61
2018-08-28T09:06:37.777Z,99490.41
2018-08-28T09:09:40.051Z,99493.31
2018-08-28T09:12:42.325Z,99486.08
2018-08-28T09:15:44.625Z,99492.48
2018-08-28T09:18:46.879Z,99489.70
2018-08-28T09:21:49.157Z,99494.44
2018-08-28T09:24:51.563Z,99487.66
2018-08-28T09:27:53.913Z,99473.12
2018-08-28T09:30:56.172Z,99482.72
2018-08-28T09:33:58.448Z,99472.32
2018-08-28T09:37:00.733Z,99477.88
2018-08-28T09:40:02.999Z,99477.66
2018-08-28T09:43:05.734Z,99476.70
2018-08-28T09:46:07.935Z,99487.57
2018-08-28T09:49:11.271Z,99484.38
2018-08-28T09:52:13.795Z,99466.61
2018-08-28T09:55:15.909Z,99472.32
2018-08-28T09:58:18.100Z,99469.71
2018-08-28T10:01:26.897Z,99477.94
2018-08-28T10:04:29.108Z,99484.94
2018-08-28T10:07:31.326Z,99476.32
2018-08-28T10:10:33.635Z,99470.20
2018-08-28T10:13:35.898Z,99470.25
2018-08-28T10:16:38.205Z,99469.17
2018-08-28T10:19:40.523Z,99471.05
2018-08-28T10:22:42.793Z,99466.77
2018-08-28T10:25:44.905Z,99470.55
2018-08-28T10:28:47.160Z,99452.33
2018-08-28T10:31:49.341Z,99446.97
2018-08-28T10:34:51.609Z,99452.02
2018-08-28T10:37:53.805Z,99444.31
2018-08-28T10:40:56.012Z,99432.20
2018-08-28T10:43:58.353Z,99431.88
2018-08-28T10:47:00.548Z,99423.52
2018-08-28T10:50:02.864Z,99440.37
2018-08-28T10:53:05.115Z,99433.55
2018-08-28T10:56:07.366Z,99430.88
2018-08-28T10:59:09.588Z,99430.70
2018-08-28T11:02:11.804Z,99432.69
2018-08-28T11:05:14.106Z,99416.50
2018-08-28T11:08:16.375Z,99414.16
2018-08-28T11:11:18.602Z,99409.17
2018-08-28T11:14:20.993Z,99405.30
2018-08-28T11:17:23.480Z,99415.30
2018-08-28T11:20:25.800Z,99416.76
2018-08-28T11:23:28.022Z,99422.91
2018-08-28T11:26:31.960Z,99425.10
2018-08-28T11:29:34.266Z,99424.89
2018-08-28T11:32:36.526Z,99414.49
2018-08-28T11:35:38.780Z,99410.16
2018-08-28T11:38:40.997Z,99420.61
2018-08-28T11:41:43.264Z,99413.48
2018-08-28T11:44:45.406Z,99407.33
2018-08-28T11:47:47.537Z,99406.36
2018-08-28T11:50:49.787Z,99396.70
2018-08-28T11:53:52.069Z,99392.35
2018-08-28T11:56:54.301Z,99395.31
2018-08-28T11:59:56.543Z,99394.28
2018-08-28T12:02:58.681Z,99388.23
2018-08-28T12:06:00.859Z,99385.66
2018-08-28T12:09:04.310Z,99384.75
2018-08-28T12:12:06.489Z,99391.41
2018-08-28T12:15:08.687Z,99386.00
2018-08-28T12:18:11.027Z,99384.98
2018-08-28T12:21:13.648Z,99379.80
2018-08-28T12:24:15.951Z,99367.33
2018-08-28T12:27:28.600Z,99361.39
2018-08-28T12:30:32.740Z,99354.49
2018-08-28T12:33:35.050Z,99350.98
2018-08-28T12:36:37.295Z,99355.13
2018-08-28T12:39:39.546Z,99351.86
2018-08-28T12:42:41.857Z,99352.55
2018-08-28T12:45:44.136Z,99345.80
2018-08-28T12:48:46.410Z,99330.87
2018-08-28T12:51:48.625Z,99335.97
2018-08-28T12:54:50.895Z,99329.48
2018-08-28T12:57:52.969Z,99330.73
2018-08-28T13:00:55.263Z,99321.69
2018-08-28T13:03:58.583Z,99316.75
2018-08-28T13:07:01.577Z,99313.52
2018-08-28T13:10:03.895Z,99319.80
2018-08-28T13:13:06.167Z,99313.64
2018-08-28T13:16:08.427Z,99319.88
2018-08-28T13:19:10.677Z,99300.84
2018-08-28T13:22:12.835Z,99302.14
2018-08-28T13:25:15.036Z,99288.51
2018-08-28T13:28:17.222Z,99282.84
2018-08-28T13:31:20.400Z,99291.00
2018-08-28T13:34:22.568Z,99298.86
2018-08-28T13:37:24.872Z,99293.12
2018-08-28T13:40:27.281Z,99280.66
2018-08-28T13:43:29.417Z,99271.50
2018-08-28T13:46:31.824Z,99268.31
2018-08-28T13:49:34.026Z,99260.61
2018-08-28T13:52:36.234Z,99258.50
2018-08-28T13:55:38.519Z,99265.98
2018-08-28T13:58:40.684Z,99280.34
2018-08-28T14:01:42.817Z,99274.50
2018-08-28T14:04:44.964Z,99260.92
2018-08-28T14:07:47.123Z,99270.16
2018-08-28T14:10:49.438Z,99269.14
2018-08-28T14:13:51.802Z,99244.58
2018-08-28T14:16:54.001Z,99231.83
2018-08-28T14:19:56.286Z,99205.66
2018-08-28T14:22:58.558Z,99216.03
2018-08-28T14:26:00.805Z,99235.73
2018-08-28T14:29:03.120Z,99197.18
2018-08-28T14:32:05.463Z,99225.19
2018-08-28T14:35:07.772Z,99212.05
2018-08-28T14:38:09.977Z,99205.19
2018-08-28T14:41:12.661Z,99201.62
2018-08-28T14:44:14.803Z,99204.95
2018-08-28T14:47:17.020Z,99211.17
2018-08-28T14:50:19.423Z,99209.80
2018-08-28T14:53:21.593Z,99206.02
2018-08-28T14:56:24.908Z,99184.78
2018-08-28T14:59:27.143Z,99236.64
2018-08-28T15:02:32.262Z,99247.13
2018-08-28T15:05:34.534Z,99243.70
2018-08-28T15:08:39.999Z,99213.28
2018-08-28T15:11:42.329Z,99190.00
2018-08-28T15:14:45.330Z,99170.91
2018-08-28T15:17:47.604Z,99168.55
2018-08-28T15:20:49.945Z,99202.14
2018-08-28T15:23:52.067Z,99195.17
2018-08-28T15:26:55.288Z,99192.24
2018-08-28T15:29:57.506Z,99195.27
2018-08-28T15:32:59.861Z,99187.57
2018-08-28T15:36:03.029Z,99145.03
2018-08-28T15:39:05.572Z,99172.98
2018-08-28T15:42:07.780Z,99193.41
2018-08-28T15:45:10.024Z,99198.12
2018-08-28T15:48:12.253Z,99205.42
2018-08-28T15:52:17.873Z,99187.05
2018-08-28T15:55:20.080Z,99178.54
2018-08-28T15:58:22.309Z,99190.75
2018-08-28T16:01:25.005Z,99194.22
2018-08-28T16:04:27.382Z,99181.31
2018-08-28T16:07:29.686Z,99175.24
2018-08-28T16:10:31.832Z,99183.40
2018-08-28T16:13:34.040Z,99167.59
2018-08-28T16:16:36.301Z,99216.10
2018-08-28T16:19:38.457Z,99211.51
2018-08-28T16:22:43.659Z,99183.81
2018-08-28T16:25:45.973Z,99178.95
2018-08-28T16:28:48.179Z,99163.47
2018-08-28T16:31:50.459Z,99192.63
2018-08-28T16:34:52.652Z,99184.87
2018-08-28T16:37:54.829Z,99153.78
2018-08-28T16:40:57.051Z,99184.98
2018-08-28T16:43:59.308Z,99188.19
2018-08-28T16:47:01.702Z,99186.60
2018-08-28T16:50:04.066Z,99151.71
2018-08-28T16:53:06.320Z,99170.75
2018-08-28T16:56:08.696Z,99168.06
2018-08-28T16:59:10.933Z,99160.28
2018-08-28T17:02:13.200Z,99166.70
2018-08-28T17:05:15.375Z,99158.38
2018-08-28T17:08:17.613Z,99156.19
2018-08-28T17:11:19.882Z,99154.20
2018-08-28T17:14:22.149Z,99168.85
2018-08-28T17:17:24.737Z,99161.54
2018-08-28T17:20:27.010Z,99164.95
2018-08-28T17:23:29.293Z,99165.69
2018-08-28T17:26:31.595Z,99157.63
2018-08-28T17:29:33.855Z,99154.33
2018-08-28T17:32:36.135Z,99162.98
2018-08-28T17:35:38.279Z,99165.67
2018-08-28T17:38:40.500Z,99163.78
2018-08-28T17:41:42.708Z,99167.16
2018-08-28T17:44:44.931Z,99161.17
2018-08-28T17:47:49.711Z,99164.05
2018-08-28T17:50:52.026Z,99157.88
2018-08-28T17:53:54.301Z,99156.52
2018-08-28T17:56:56.538Z,99159.32
2018-08-28T17:59:58.810Z,99159.78
2018-08-28T18:03:01.132Z,99161.69
2018-08-28T18:06:03.289Z,99164.31
2018-08-28T18:09:05.792Z,99159.70
2018-08-28T18:12:08.338Z,99160.08
2018-08-28T18:15:10.838Z,99161.70
2018-08-28T18:18:13.785Z,99168.91
2018-08-28T18:21:16.369Z,99166.09
2018-08-28T18:24:18.740Z,99159.98
2018-08-28T18:27:21.080Z,99163.58
2018-08-28T18:30:23.439Z,99159.20
2018-08-28T18:33:25.663Z,99162.37
2018-08-28T18:36:27.935Z,99164.94
2018-08-28T18:39:31.137Z,99155.30
2018-08-28T18:42:33.455Z,99149.94
2018-08-28T18:45:35.702Z,99154.92
2018-08-28T18:48:37.924Z,99154.90
2018-08-28T18:51:40.269Z,99156.06
2018-08-28T18:54:42.528Z,99147.62
2018-08-28T18:57:44.763Z,99149.00
2018-08-28T19:00:47.033Z,99147.95
2018-08-28T19:03:49.292Z,99151.05
2018-08-28T19:06:51.648Z,99147.99
2018-08-28T19:09:54.055Z,99152.59
2018-08-28T19:12:56.297Z,99149.34
2018-08-28T19:15:58.555Z,99162.30
2018-08-28T19:19:00.915Z,99164.70
2018-08-28T19:22:03.192Z,99168.18
2018-08-28T19:25:05.577Z,99171.14
2018-08-28T19:28:07.939Z,99178.28
2018-08-28T19:31:10.093Z,99179.94
2018-08-28T19:34:12.324Z,99177.25
2018-08-28T19:37:14.528Z,99169.30
2018-08-28T19:40:16.758Z,99165.48
2018-08-28T19:43:19.010Z,99170.13
2018-08-28T19:46:21.183Z,99167.94
2018-08-28T19:49:23.333Z,99163.49
2018-08-28T19:52:26.568Z,99159.05
2018-08-28T19:55:28.901Z,99163.23
2018-08-28T19:58:31.096Z,99161.83
2018-08-28T20:01:33.263Z,99163.13
2018-08-28T20:04:35.541Z,99175.56
2018-08-28T20:07:37.805Z,99166.31
2018-08-28T20:10:40.120Z,99162.47
2018-08-28T20:13:42.303Z,99166.52
2018-08-28T20:16:45.565Z,99170.06
2018-08-28T20:19:48.894Z,99164.80
2018-08-28T20:22:51.068Z,99156.11
2018-08-28T20:25:53.259Z,99164.67
2018-08-28T20:28:55.443Z,99157.88
2018-08-28T20:31:57.628Z,99167.26
2018-08-28T20:35:00.125Z,99164.45
2018-08-28T20:38:02.343Z,99166.24
2018-08-28T20:41:04.778Z,99163.84
2018-08-28T20:44:07.090Z,99151.58
2018-08-28T20:47:09.404Z,99151.31
2018-08-28T20:50:11.643Z,99149.50
2018-08-28T20:53:13.916Z,99141.31
2018-08-28T20:56:16.117Z,99140.45
2018-08-28T20:59:18.404Z,99134.68
2018-08-28T21:02:20.564Z,99142.69
2018-08-28T21:05:26.658Z,99141.01
2018-08-28T21:08:28.866Z,99137.31
2018-08-28T21:11:31.365Z,99134.58
2018-08-28T21:14:33.640Z,99130.17
2018-08-28T21:17:36.922Z,99125.16
2018-08-28T21:20:39.140Z,99128.89
2018-08-28T21:23:41.368Z,99123.86
2018-08-28T21:26:43.567Z,99115.77
2018-08-28T21:29:45.793Z,99118.47
2018-08-28T21:32:48.094Z,99117.85
2018-08-28T21:35:50.528Z,99108.73
2018-08-28T21:38:52.626Z,99109.75
2018-08-28T21:41:54.865Z,99112.41
2018-08-28T21:44:57.028Z,99114.73
2018-08-28T21:47:59.152Z,99115.09
2018-08-28T21:51:01.366Z,99110.19
2018-08-28T21:54:03.594Z,99105.29
2018-08-28T21:57:05.961Z,99100.16
2018-08-28T22:00:08.413Z,99098.35
2018-08-28T22:03:10.693Z,99091.16
2018-08-28T22:06:18.611Z,99084.39
2018-08-28T22:09:20.842Z,99079.65
2018-08-28T22:12:23.056Z,99082.31
2018-08-28T22:15:26.328Z,99081.71
2018-08-28T22:18:28.645Z,99079.13
2018-08-28T22:21:30.850Z,99077.72
2018-08-28T22:24:33.193Z,99083.48
2018-08-28T22:27:35.543Z,99087.58
2018-08-28T22:30:37.744Z,99079.23
2018-08-28T22:33:39.919Z,99078.59
2018-08-28T22:37:45.332Z,99076.31
2018-08-28T22:40:47.551Z,99083.86
2018-08-28T22:43:49.861Z,99086.81
2018-08-28T22:46:52.120Z,99077.83
2018-08-28T22:49:54.345Z,99074.89
2018-08-28T22:52:56.506Z,99078.37
2018-08-28T22:55:58.733Z,99081.66
2018-08-28T22:59:00.981Z,99074.81
2018-08-28T23:02:03.389Z,99076.94
2018-08-28T23:05:05.744Z,99077.11
2018-08-28T23:08:08.060Z,99083.32
2018-08-28T23:11:10.344Z,99080.06
2018-08-28T23:14:12.520Z,99080.88
2018-08-28T23:17:14.718Z,99076.80
2018-08-28T23:20:17.037Z,99072.22
2018-08-28T23:23:19.176Z,99064.36
2018-08-28T23:26:21.440Z,99060.12
2018-08-28T23:29:23.647Z,99060.79
2018-08-28T23:32:25.832Z,99065.86
2018-08-28T23:35:28.038Z,99054.27
2018-08-28T23:38:30.144Z,99050.03
2018-08-28T23:41:32.405Z,99046.74
2018-08-28T23:44:34.638Z,99040.83
2018-08-28T23:47:36.821Z,99033.32
2018-08-28T23:50:38.989Z,99034.63
2018-08-28T23:53:41.163Z,99040.21
2018-08-28T23:56:43.404Z,99028.95
2018-08-28T23:59:45.641Z,99031.72
